Glenpool, Oklahoma
Current Conditions -  °F | °C
As of 11:53 PM on Saturday 20 Dec 2014 (Local Time) from KRVS Reporting Station
Overcast Overcast  
Wind Chill: 38°   Ceiling: 1800
Heat Index: 42°   Visibility: 10mi
Dew Point: 39°   Wind: 6mph
Humidity: 89%   Direction: 190°S
Pressure: 30.18"   Gusts: NA
Location:  35.95°N, 96.01°W
Report Text: KRVS 210553Z AUTO 19005KT 10SM OVC018 06/04 A3018 RMK AO2 SLP224 T00560039 10061 20056 400720033 58004
Loading
Personal Weather Stations






























Interactive Weather Map New forecast layout! Learn more

10-Day Weather Forecast

Advertisements
Track Severe Weather on mobile